createdAt,value
2019-04-14T00:01:04.330Z,99.90
2019-04-14T00:03:37.567Z,99.90
2019-04-14T00:06:06.983Z,99.90
2019-04-14T00:08:35.532Z,99.90
2019-04-14T00:11:04.210Z,99.90
2019-04-14T00:13:32.842Z,99.90
2019-04-14T00:16:01.583Z,99.90
2019-04-14T00:18:30.082Z,99.90
2019-04-14T00:20:59.769Z,99.90
2019-04-14T00:23:28.359Z,99.90
2019-04-14T00:26:16.713Z,99.90
2019-04-14T00:28:45.431Z,99.90
2019-04-14T00:31:13.890Z,99.90
2019-04-14T00:33:43.438Z,99.90
2019-04-14T00:36:16.166Z,99.90
2019-04-14T00:38:46.219Z,99.90
2019-04-14T00:41:20.165Z,99.90
2019-04-14T00:43:57.010Z,99.90
2019-04-14T00:46:45.304Z,99.90
2019-04-14T00:49:13.974Z,99.90
2019-04-14T00:51:42.508Z,99.90
2019-04-14T00:54:11.271Z,99.90
2019-04-14T00:56:41.085Z,99.90
2019-04-14T00:59:09.626Z,99.90
2019-04-14T01:01:39.404Z,99.90
2019-04-14T01:04:08.038Z,99.90
2019-04-14T01:06:36.763Z,99.90
2019-04-14T01:09:08.589Z,99.90
2019-04-14T01:11:37.870Z,99.90
2019-04-14T01:14:06.347Z,99.90
2019-04-14T01:16:34.752Z,99.90
2019-04-14T01:19:03.270Z,99.90
2019-04-14T01:21:32.716Z,99.90
2019-04-14T01:24:01.387Z,99.90
2019-04-14T01:26:30.969Z,99.90
2019-04-14T01:28:59.562Z,99.90
2019-04-14T01:31:28.021Z,99.90
2019-04-14T01:33:57.550Z,99.90
2019-04-14T01:36:26.173Z,99.90
2019-04-14T01:38:55.643Z,99.90
2019-04-14T01:41:24.113Z,99.90
2019-04-14T01:43:53.798Z,99.90
2019-04-14T01:46:27.683Z,99.90
2019-04-14T01:48:52.459Z,99.90
2019-04-14T01:51:39.609Z,99.90
2019-04-14T01:54:25.976Z,99.90
2019-04-14T01:56:56.014Z,99.90
2019-04-14T01:59:24.428Z,99.90
2019-04-14T02:01:54.485Z,99.90
2019-04-14T02:04:22.903Z,99.90
2019-04-14T02:06:52.615Z,99.90
2019-04-14T02:09:21.296Z,99.90
2019-04-14T02:11:50.937Z,99.90
2019-04-14T02:14:19.550Z,99.90
2019-04-14T02:16:52.612Z,99.90
2019-04-14T02:19:18.116Z,99.90
2019-04-14T02:21:47.678Z,99.90
2019-04-14T02:24:17.711Z,99.90
2019-04-14T02:26:46.222Z,99.90
2019-04-14T02:29:14.634Z,99.90
2019-04-14T02:32:11.224Z,99.90
2019-04-14T02:34:40.112Z,99.90
2019-04-14T02:37:12.458Z,99.90
2019-04-14T02:39:46.657Z,99.90
2019-04-14T02:42:19.437Z,99.90
2019-04-14T02:47:18.158Z,99.90
2019-04-14T02:49:44.133Z,99.90
2019-04-14T02:52:16.539Z,99.90
2019-04-14T02:54:51.751Z,99.90
2019-04-14T02:57:26.775Z,99.90
2019-04-14T02:59:44.618Z,99.90
2019-04-14T03:04:44.869Z,99.90
2019-04-14T03:07:16.195Z,99.90
2019-04-14T03:12:09.683Z,99.90
2019-04-14T03:17:21.410Z,99.90
2019-04-14T03:22:37.793Z,99.90
2019-04-14T03:25:08.139Z,99.90
2019-04-14T03:30:51.684Z,99.90
2019-04-14T03:33:27.402Z,99.90
2019-04-14T03:35:51.881Z,99.90
2019-04-14T03:37:56.649Z,99.90
2019-04-14T03:40:25.902Z,99.90
2019-04-14T03:42:59.006Z,99.90
2019-04-14T03:45:25.657Z,99.90
2019-04-14T03:48:02.048Z,99.90
2019-04-14T03:50:21.728Z,99.90
2019-04-14T03:52:56.181Z,99.90
2019-04-14T03:55:11.470Z,99.90
2019-04-14T03:57:29.645Z,99.90
2019-04-14T03:59:58.630Z,99.90
2019-04-14T04:02:27.239Z,99.90
2019-04-14T04:04:55.608Z,99.90
2019-04-14T04:07:24.015Z,99.90
2019-04-14T04:09:54.144Z,99.90
2019-04-14T04:12:22.666Z,99.90
2019-04-14T04:14:51.133Z,99.90
2019-04-14T04:17:34.191Z,99.90
2019-04-14T04:20:19.692Z,99.90
2019-04-14T04:23:09.469Z,99.90
2019-04-14T04:25:39.959Z,99.90
2019-04-14T04:28:23.110Z,99.90
2019-04-14T04:30:53.690Z,99.90
2019-04-14T04:33:24.232Z,99.90
2019-04-14T04:36:20.332Z,99.90
2019-04-14T04:38:53.574Z,99.90
2019-04-14T04:41:23.173Z,99.90
2019-04-14T04:43:51.866Z,99.90
2019-04-14T04:46:20.275Z,99.90
2019-04-14T04:49:02.021Z,99.90
2019-04-14T04:51:18.787Z,99.90
2019-04-14T04:53:48.141Z,99.90
2019-04-14T04:56:16.764Z,99.90
2019-04-14T04:58:45.645Z,99.90
2019-04-14T05:01:14.498Z,99.90
2019-04-14T05:03:42.917Z,99.90
2019-04-14T05:06:48.380Z,99.90
2019-04-14T05:09:36.906Z,99.90
2019-04-14T05:12:11.013Z,99.90
2019-04-14T05:14:41.249Z,99.90
2019-04-14T05:17:10.202Z,99.90
2019-04-14T05:19:40.379Z,99.90
2019-04-14T05:22:09.284Z,99.90
2019-04-14T05:24:37.739Z,99.90
2019-04-14T05:27:06.282Z,99.90
2019-04-14T05:29:34.713Z,99.90
2019-04-14T05:32:03.140Z,99.90
2019-04-14T05:34:32.855Z,99.90
2019-04-14T05:37:01.248Z,99.90
2019-04-14T05:39:30.693Z,99.90
2019-04-14T05:42:06.584Z,99.90
2019-04-14T05:44:29.677Z,99.90
2019-04-14T05:46:58.173Z,99.90
2019-04-14T05:49:33.928Z,99.90
2019-04-14T05:51:56.707Z,99.90
2019-04-14T05:54:25.296Z,99.90
2019-04-14T05:56:53.790Z,99.90
2019-04-14T05:59:22.634Z,99.90
2019-04-14T06:01:51.123Z,99.90
2019-04-14T06:04:20.046Z,99.90
2019-04-14T06:06:48.584Z,99.90
2019-04-14T06:09:16.989Z,99.90
2019-04-14T06:11:45.650Z,99.90
2019-04-14T06:14:14.107Z,99.90
2019-04-14T06:16:42.655Z,99.90
2019-04-14T06:19:11.189Z,99.90
2019-04-14T06:21:39.582Z,99.90
2019-04-14T06:24:08.198Z,99.90
2019-04-14T06:26:36.614Z,99.90
2019-04-14T06:29:05.014Z,99.90
2019-04-14T06:31:35.073Z,99.90
2019-04-14T06:34:20.535Z,99.90
2019-04-14T06:36:59.506Z,99.90
2019-04-14T06:39:32.037Z,99.90
2019-04-14T06:42:01.413Z,99.90
2019-04-14T06:44:30.016Z,99.90
2019-04-14T06:46:58.421Z,99.90
2019-04-14T06:49:26.842Z,99.90
2019-04-14T06:51:55.254Z,99.90
2019-04-14T06:54:23.947Z,99.90
2019-04-14T06:56:52.398Z,99.90
2019-04-14T06:59:20.921Z,99.90
2019-04-14T07:01:49.374Z,99.90
2019-04-14T07:04:17.851Z,99.90
2019-04-14T07:06:46.314Z,99.90
2019-04-14T07:09:14.758Z,99.90
2019-04-14T07:11:43.238Z,99.90
2019-04-14T07:14:14.159Z,99.90
2019-04-14T07:16:42.596Z,99.90
2019-04-14T07:19:11.053Z,99.90
2019-04-14T07:21:39.614Z,99.90
2019-04-14T07:24:08.137Z,99.90
2019-04-14T07:26:36.599Z,99.90
2019-04-14T07:29:05.075Z,99.90
2019-04-14T07:31:35.169Z,99.90
2019-04-14T07:34:22.015Z,99.90
2019-04-14T07:36:52.122Z,99.90
2019-04-14T07:39:37.224Z,99.90
2019-04-14T07:42:24.830Z,99.90
2019-04-14T07:45:13.160Z,99.70
2019-04-14T07:50:56.454Z,99.70
2019-04-14T07:53:41.478Z,99.60
2019-04-14T07:56:29.623Z,99.30
2019-04-14T07:59:02.840Z,99.20
2019-04-14T08:01:32.982Z,98.90
2019-04-14T08:04:03.049Z,98.90
2019-04-14T08:06:32.202Z,98.40
2019-04-14T08:09:01.661Z,98.20
2019-04-14T08:11:30.087Z,97.90
2019-04-14T08:13:59.362Z,97.90
2019-04-14T08:16:28.030Z,97.70
2019-04-14T08:18:56.545Z,97.30
2019-04-14T08:21:24.980Z,96.90
2019-04-14T08:23:53.413Z,97.10
2019-04-14T08:26:22.807Z,96.70
2019-04-14T08:28:51.427Z,96.50
2019-04-14T08:31:19.819Z,96.20
2019-04-14T08:33:48.230Z,96.40
2019-04-14T08:36:16.710Z,96.30
2019-04-14T08:38:45.110Z,96.20
2019-04-14T08:41:13.535Z,96.20
2019-04-14T08:43:43.675Z,96.20
2019-04-14T08:46:20.114Z,95.70
2019-04-14T08:48:52.758Z,95.40
2019-04-14T08:51:28.674Z,95.30
2019-04-14T08:54:16.491Z,95.00
2019-04-14T08:56:51.669Z,94.90
2019-04-14T08:59:34.051Z,94.10
2019-04-14T09:02:06.839Z,93.60
2019-04-14T09:04:39.560Z,93.60
2019-04-14T09:07:25.862Z,93.70
2019-04-14T09:10:01.947Z,93.40
2019-04-14T09:12:31.991Z,93.30
2019-04-14T09:15:00.686Z,92.30
2019-04-14T09:17:30.670Z,92.20
2019-04-14T09:19:59.097Z,92.50
2019-04-14T09:22:27.557Z,92.10
2019-04-14T09:24:56.041Z,92.30
2019-04-14T09:27:24.667Z,92.00
2019-04-14T09:29:53.170Z,91.20
2019-04-14T09:32:22.037Z,91.10
2019-04-14T09:34:50.434Z,90.70
2019-04-14T09:37:18.948Z,90.40
2019-04-14T09:39:47.659Z,90.40
2019-04-14T09:42:16.122Z,90.50
2019-04-14T09:44:50.790Z,90.10
2019-04-14T09:47:19.217Z,89.50
2019-04-14T09:49:47.625Z,89.30
2019-04-14T09:52:16.045Z,88.70
2019-04-14T09:54:44.500Z,87.70
2019-04-14T09:57:13.176Z,86.70
2019-04-14T09:59:41.638Z,88.00
2019-04-14T10:02:10.069Z,88.70
2019-04-14T10:04:38.621Z,89.00
2019-04-14T10:07:07.037Z,88.10
2019-04-14T10:09:35.529Z,88.70
2019-04-14T10:12:04.135Z,88.60
2019-04-14T10:14:32.556Z,89.40
2019-04-14T10:17:01.491Z,89.50
2019-04-14T10:19:30.239Z,89.40
2019-04-14T10:21:58.724Z,88.50
2019-04-14T10:24:27.128Z,88.40
2019-04-14T10:26:55.520Z,87.90
2019-04-14T10:29:23.953Z,88.00
2019-04-14T10:31:52.396Z,87.30
2019-04-14T10:34:20.795Z,87.00
2019-04-14T10:36:49.204Z,87.20
2019-04-14T10:39:17.620Z,86.50
2019-04-14T10:41:46.111Z,85.70
2019-04-14T10:44:14.531Z,84.50
2019-04-14T10:46:42.943Z,84.70
2019-04-14T10:49:11.344Z,82.90
2019-04-14T10:51:39.762Z,83.40
2019-04-14T10:54:08.167Z,81.80
2019-04-14T10:56:36.626Z,79.20
2019-04-14T10:59:05.194Z,78.50
2019-04-14T11:01:33.666Z,77.30
2019-04-14T11:04:02.126Z,75.10
2019-04-14T11:06:32.214Z,75.10
2019-04-14T11:09:00.624Z,74.20
2019-04-14T11:11:29.036Z,73.80
2019-04-14T11:13:57.478Z,73.90
2019-04-14T11:16:25.897Z,73.20
2019-04-14T11:18:54.298Z,72.80
2019-04-14T11:21:22.963Z,73.10
2019-04-14T11:23:51.360Z,74.00
2019-04-14T11:26:19.764Z,75.70
2019-04-14T11:28:48.179Z,76.20
2019-04-14T11:31:18.395Z,75.30
2019-04-14T11:33:59.894Z,75.10
2019-04-14T11:36:39.082Z,74.20
2019-04-14T11:39:09.145Z,71.30
2019-04-14T11:41:37.814Z,70.60
2019-04-14T11:44:06.389Z,68.80
2019-04-14T11:46:34.786Z,68.20
2019-04-14T11:49:03.299Z,67.00
2019-04-14T11:51:31.769Z,68.50
2019-04-14T11:54:00.738Z,68.70
2019-04-14T11:56:29.165Z,69.00
2019-04-14T11:58:57.688Z,68.50
2019-04-14T12:01:44.045Z,67.30
2019-04-14T12:04:25.966Z,64.60
2019-04-14T12:07:13.347Z,65.30
2019-04-14T12:09:43.383Z,65.90
2019-04-14T12:12:11.818Z,66.40
2019-04-14T12:14:40.239Z,66.20
2019-04-14T12:17:08.705Z,66.00
2019-04-14T12:19:37.156Z,62.90
2019-04-14T12:22:08.380Z,61.20
2019-04-14T12:24:35.911Z,59.90
2019-04-14T12:27:04.569Z,59.30
2019-04-14T12:29:32.966Z,59.50
2019-04-14T12:32:01.767Z,60.80
2019-04-14T12:34:30.350Z,61.70
2019-04-14T12:36:58.879Z,60.50
2019-04-14T12:39:27.254Z,59.40
2019-04-14T12:42:06.761Z,59.60
2019-04-14T12:44:39.535Z,57.50
2019-04-14T12:47:25.667Z,56.80
2019-04-14T12:50:12.218Z,54.40
2019-04-14T12:52:40.630Z,53.20
2019-04-14T12:55:09.202Z,52.60
2019-04-14T12:57:39.495Z,51.70
2019-04-14T13:00:10.000Z,52.10
2019-04-14T13:02:40.052Z,52.70
2019-04-14T13:05:09.200Z,52.60
2019-04-14T13:07:37.601Z,52.10
2019-04-14T13:10:07.797Z,51.60
2019-04-14T13:12:36.198Z,50.80
2019-04-14T13:15:06.349Z,49.60
2019-04-14T13:17:34.770Z,49.00
2019-04-14T13:20:05.189Z,49.80
2019-04-14T13:22:34.446Z,49.00
2019-04-14T13:25:03.503Z,49.50
2019-04-14T13:27:31.975Z,49.90
2019-04-14T13:30:00.458Z,49.70
2019-04-14T13:32:35.972Z,48.90
2019-04-14T13:34:59.105Z,49.20
2019-04-14T13:37:27.763Z,49.60
2019-04-14T13:39:56.224Z,49.70
2019-04-14T13:42:24.880Z,50.20
2019-04-14T13:44:53.322Z,50.70
2019-04-14T13:47:21.761Z,50.70
2019-04-14T13:49:50.165Z,50.00
2019-04-14T13:52:18.590Z,49.70
2019-04-14T13:54:47.037Z,49.80
2019-04-14T13:57:15.588Z,49.70
2019-04-14T13:59:44.223Z,49.80
2019-04-14T14:02:12.768Z,49.20
2019-04-14T14:04:41.198Z,49.40
2019-04-14T14:07:09.772Z,49.80
2019-04-14T14:09:38.160Z,50.50
2019-04-14T14:12:14.191Z,50.80
2019-04-14T14:14:44.313Z,50.70
2019-04-14T14:17:17.350Z,50.60
2019-04-14T14:19:59.262Z,50.80
2019-04-14T14:22:29.350Z,50.80
2019-04-14T14:25:02.485Z,50.70
2019-04-14T14:27:30.887Z,50.20
2019-04-14T14:29:59.300Z,49.50
2019-04-14T14:32:29.339Z,49.60
2019-04-14T14:34:57.745Z,49.70
2019-04-14T14:37:26.165Z,49.40
2019-04-14T14:39:54.562Z,50.00
2019-04-14T14:42:22.969Z,50.80
2019-04-14T14:44:53.023Z,51.00
2019-04-14T14:47:25.858Z,50.20
2019-04-14T14:49:58.642Z,50.10
2019-04-14T14:52:27.986Z,51.00
2019-04-14T14:54:56.393Z,50.80
2019-04-14T14:57:24.865Z,50.60
2019-04-14T14:59:53.306Z,50.60
2019-04-14T15:02:21.898Z,50.10
2019-04-14T15:04:50.294Z,49.30
2019-04-14T15:07:18.711Z,49.20
2019-04-14T15:09:47.165Z,49.60
2019-04-14T15:12:15.585Z,49.60
2019-04-14T15:14:44.039Z,49.30
2019-04-14T15:17:12.535Z,49.30
2019-04-14T15:19:40.942Z,50.00
2019-04-14T15:22:13.321Z,49.70
2019-04-14T15:24:41.794Z,49.30
2019-04-14T15:27:10.576Z,50.50
2019-04-14T15:29:39.054Z,51.30
2019-04-14T15:32:07.486Z,51.10
2019-04-14T15:34:35.886Z,51.00
2019-04-14T15:37:04.354Z,51.30
2019-04-14T15:39:32.932Z,52.20
2019-04-14T15:42:01.367Z,52.30
2019-04-14T15:44:29.766Z,52.20
2019-04-14T15:46:58.230Z,52.00
2019-04-14T15:49:26.674Z,51.90
2019-04-14T15:51:55.071Z,52.60
2019-04-14T15:54:25.413Z,53.50
2019-04-14T15:57:07.563Z,54.40
2019-04-14T15:59:53.832Z,55.00
2019-04-14T16:02:32.865Z,55.50
2019-04-14T16:05:02.924Z,56.00
2019-04-14T16:07:33.009Z,56.10
2019-04-14T16:10:15.389Z,56.00
2019-04-14T16:12:48.359Z,56.40
2019-04-14T16:15:21.106Z,56.40
2019-04-14T16:17:51.160Z,55.60
2019-04-14T16:20:27.178Z,55.40
2019-04-14T16:22:55.596Z,55.50
2019-04-14T16:25:25.630Z,55.50
2019-04-14T16:27:58.522Z,55.80
2019-04-14T16:30:43.637Z,56.30
2019-04-14T16:33:16.415Z,56.90
2019-04-14T16:35:46.360Z,57.50
2019-04-14T16:38:14.840Z,57.40
2019-04-14T16:40:43.279Z,57.50
2019-04-14T16:43:11.782Z,57.60
2019-04-14T16:45:40.191Z,57.80
2019-04-14T16:48:08.611Z,57.90
2019-04-14T16:50:37.031Z,57.70
2019-04-14T16:53:07.142Z,57.80
2019-04-14T16:55:41.258Z,57.80
2019-04-14T16:58:11.422Z,58.20
2019-04-14T17:00:41.459Z,58.50
2019-04-14T17:03:09.929Z,58.80
2019-04-14T17:05:39.151Z,59.20
2019-04-14T17:08:07.783Z,59.40
2019-04-14T17:10:36.175Z,59.50
2019-04-14T17:13:04.659Z,59.70
2019-04-14T17:15:34.715Z,60.10
2019-04-14T17:18:21.007Z,60.70
2019-04-14T17:20:51.055Z,61.60
2019-04-14T17:23:36.666Z,62.20
2019-04-14T17:26:06.750Z,62.70
2019-04-14T17:28:36.850Z,63.50
2019-04-14T17:31:21.987Z,64.30
2019-04-14T17:34:01.186Z,65.00
2019-04-14T17:36:40.055Z,65.80
2019-04-14T17:39:15.766Z,66.70
2019-04-14T17:41:48.698Z,67.60
2019-04-14T17:44:18.767Z,68.60
2019-04-14T17:47:05.285Z,69.00
2019-04-14T17:49:40.894Z,69.50
2019-04-14T17:52:28.820Z,70.10
2019-04-14T17:54:58.881Z,71.00
2019-04-14T17:57:28.896Z,71.70
2019-04-14T18:00:01.727Z,72.70
2019-04-14T18:02:40.691Z,73.60
2019-04-14T18:05:10.886Z,74.50
2019-04-14T18:07:40.920Z,75.20
2019-04-14T18:10:20.073Z,76.10
2019-04-14T18:12:52.930Z,77.10
2019-04-14T18:15:32.444Z,78.00
2019-04-14T18:18:08.402Z,78.90
2019-04-14T18:20:41.281Z,80.10
2019-04-14T18:23:09.668Z,81.50
2019-04-14T18:25:38.063Z,82.60
2019-04-14T18:28:08.286Z,83.70
2019-04-14T18:30:38.643Z,84.50
2019-04-14T18:33:08.777Z,85.30
2019-04-14T18:35:54.073Z,86.10
2019-04-14T18:38:30.295Z,87.20
2019-04-14T18:41:03.054Z,87.80
2019-04-14T18:43:36.253Z,89.00
2019-04-14T18:46:12.119Z,89.20
2019-04-14T18:48:42.378Z,90.00
2019-04-14T18:51:15.240Z,90.50
2019-04-14T18:54:03.246Z,90.40
2019-04-14T18:56:42.338Z,90.70
2019-04-14T18:59:18.399Z,91.20
2019-04-14T19:01:48.614Z,91.60
2019-04-14T19:04:17.156Z,92.00
2019-04-14T19:06:45.547Z,92.40
2019-04-14T19:09:14.038Z,92.70
2019-04-14T19:11:53.194Z,93.00
2019-04-14T19:14:23.262Z,93.30
2019-04-14T19:16:53.360Z,93.60
2019-04-14T19:19:23.342Z,93.80
2019-04-14T19:21:51.860Z,94.10
2019-04-14T19:24:20.286Z,94.40
2019-04-14T19:26:48.661Z,94.70
2019-04-14T19:29:17.051Z,95.00
2019-04-14T19:31:45.651Z,95.20
2019-04-14T19:34:14.051Z,95.40
2019-04-14T19:36:42.446Z,95.60
2019-04-14T19:39:10.924Z,95.90
2019-04-14T19:41:39.669Z,96.20
2019-04-14T19:44:08.078Z,96.40
2019-04-14T19:46:36.483Z,96.50
2019-04-14T19:49:04.911Z,96.70
2019-04-14T19:51:33.309Z,96.90
2019-04-14T19:54:01.862Z,97.00
2019-04-14T19:56:30.363Z,97.10
2019-04-14T19:58:58.846Z,97.20
2019-04-14T20:01:27.330Z,97.30
2019-04-14T20:03:55.907Z,97.40
2019-04-14T20:06:24.415Z,97.50
2019-04-14T20:08:52.806Z,97.70
2019-04-14T20:11:21.275Z,97.90
2019-04-14T20:13:49.931Z,98.00
2019-04-14T20:16:36.534Z,98.10
2019-04-14T20:19:15.814Z,98.20
2019-04-14T20:21:48.773Z,98.30
2019-04-14T20:24:18.816Z,98.40
2019-04-14T20:26:57.666Z,98.50
2019-04-14T20:29:30.673Z,98.50
2019-04-14T20:32:06.813Z,98.60
2019-04-14T20:34:35.238Z,98.70
2019-04-14T20:37:03.713Z,98.90
2019-04-14T20:39:32.878Z,99.10
2019-04-14T20:42:01.279Z,99.30
2019-04-14T20:44:29.751Z,99.50
2019-04-14T20:46:58.232Z,99.70
2019-04-14T20:49:27.618Z,99.90
2019-04-14T20:51:56.035Z,99.90
2019-04-14T20:54:24.508Z,99.90
2019-04-14T20:56:52.919Z,99.90
2019-04-14T20:59:21.342Z,99.90
2019-04-14T21:01:51.390Z,99.90
2019-04-14T21:04:33.797Z,99.90
2019-04-14T21:07:12.678Z,99.90
2019-04-14T21:09:48.770Z,99.90
2019-04-14T21:12:30.461Z,99.90
2019-04-14T21:15:15.619Z,99.90
2019-04-14T21:17:45.646Z,99.90
2019-04-14T21:20:15.735Z,99.90
2019-04-14T21:22:51.819Z,99.90
2019-04-14T21:25:36.687Z,99.90
2019-04-14T21:28:09.266Z,99.90
2019-04-14T21:30:39.329Z,99.90
2019-04-14T21:33:12.350Z,99.90
2019-04-14T21:35:59.015Z,99.90
2019-04-14T21:38:41.411Z,99.90
2019-04-14T21:41:11.450Z,99.90
2019-04-14T21:43:39.851Z,99.90
2019-04-14T21:46:08.326Z,99.90
2019-04-14T21:48:36.710Z,99.90
2019-04-14T21:51:05.154Z,99.90
2019-04-14T21:53:33.573Z,99.90
2019-04-14T21:56:12.870Z,99.90
2019-04-14T21:58:33.782Z,99.90
2019-04-14T22:01:35.047Z,99.90
2019-04-14T22:04:05.146Z,99.90
2019-04-14T22:06:47.432Z,99.90
2019-04-14T22:09:17.523Z,99.90
2019-04-14T22:11:46.050Z,99.90
2019-04-14T22:14:14.475Z,99.90
2019-04-14T22:16:42.883Z,99.90
2019-04-14T22:19:11.339Z,99.90
2019-04-14T22:21:39.729Z,99.90
2019-04-14T22:24:08.214Z,99.90
2019-04-14T22:26:36.590Z,99.90
2019-04-14T22:29:05.081Z,99.90
2019-04-14T22:31:33.483Z,99.90
2019-04-14T22:34:02.084Z,99.90
2019-04-14T22:36:30.497Z,99.90
2019-04-14T22:38:58.886Z,99.90
2019-04-14T22:41:27.310Z,99.90
2019-04-14T22:43:55.778Z,99.90
2019-04-14T22:46:24.237Z,99.90
2019-04-14T22:48:52.866Z,99.90
2019-04-14T22:51:21.318Z,99.90
2019-04-14T22:53:50.051Z,99.90
2019-04-14T22:56:18.458Z,99.90
2019-04-14T22:58:46.947Z,99.90
2019-04-14T23:01:22.983Z,99.90
2019-04-14T23:03:59.338Z,99.90
2019-04-14T23:06:35.374Z,99.90
2019-04-14T23:09:18.639Z,99.90
2019-04-14T23:11:48.686Z,99.90
2019-04-14T23:14:27.728Z,99.90
2019-04-14T23:17:14.193Z,99.90
2019-04-14T23:19:44.243Z,99.90
2019-04-14T23:22:23.502Z,99.90
2019-04-14T23:24:51.894Z,99.90
2019-04-14T23:27:20.291Z,99.90
2019-04-14T23:29:48.751Z,99.90
2019-04-14T23:32:17.146Z,99.90
2019-04-14T23:35:05.970Z,99.90
2019-04-14T23:37:34.736Z,99.90
2019-04-14T23:40:04.133Z,99.90
2019-04-14T23:42:32.662Z,99.90
2019-04-14T23:45:01.061Z,99.90
2019-04-14T23:47:29.513Z,99.90
2019-04-14T23:49:57.956Z,99.90
2019-04-14T23:52:26.421Z,99.90
2019-04-14T23:54:54.975Z,99.90
2019-04-14T23:57:23.332Z,99.90
2019-04-14T23:59:51.737Z,99.90
